Time;durP1;ratioP1;P1;durP2;ratioP2;P2;SDS_P1;SDS_P2;PMS_P1;PMS_P2;Temp;Humidity;BMP_temperature;BMP_pressure;BME280_temperature;BME280_humidity;BME280_pressure;Samples;Min_cycle;Max_cycle;Signal;HPM_P1;HPM_P2
2023/04/26 00:00:16;;;;;;;;;5.67;5.33;;;;;-147.17;100.00;5198.13;4952300;28;51516;-43
2023/04/26 00:02:41;;;;;;;;;8.33;7.33;;;;;-147.17;100.00;5198.13;4948597;28;51163;-43
2023/04/26 00:05:07;;;;;;;;;7.00;6.67;;;;;-147.17;100.00;5198.13;4949972;28;51234;-43
2023/04/26 00:07:34;;;;;;;;;7.00;7.00;;;;;-147.17;100.00;5198.13;4949851;28;51149;-43
2023/04/26 00:10:00;;;;;;;;;6.67;5.67;;;;;-147.17;100.00;5198.13;4952244;28;51133;-43
2023/04/26 00:12:25;;;;;;;;;6.00;5.67;;;;;-147.17;100.00;5198.13;4949909;28;51144;-43
2023/04/26 00:14:50;;;;;;;;;6.67;6.67;;;;;-147.17;100.00;5198.13;4950983;28;51025;-43
2023/04/26 00:17:16;;;;;;;;;7.33;7.33;;;;;-147.17;100.00;5198.13;4949453;28;51847;-42
2023/04/26 00:19:41;;;;;;;;;6.67;6.67;;;;;-147.17;100.00;4949.06;4951574;28;50980;-43
2023/04/26 00:22:07;;;;;;;;;7.67;7.00;;;;;-147.17;100.00;5198.13;4953167;28;50930;-43
2023/04/26 00:24:33;;;;;;;;;6.00;5.67;;;;;-147.17;100.00;4949.06;4949534;28;51226;-42
2023/04/26 00:27:00;;;;;;;;;7.67;6.67;;;;;-147.17;100.00;5198.13;4948495;28;52890;-43
2023/04/26 00:29:25;;;;;;;;;7.33;6.33;;;;;-147.17;100.00;5198.13;4949481;28;51256;-43
2023/04/26 00:31:51;;;;;;;;;6.00;6.00;;;;;-147.17;100.00;5198.13;4949918;28;51133;-42
2023/04/26 00:34:16;;;;;;;;;6.00;5.33;;;;;-147.17;100.00;5198.13;4934440;28;51196;-43
2023/04/26 00:36:42;;;;;;;;;7.33;7.33;;;;;-147.17;100.00;5198.13;4948270;28;52990;-43
2023/04/26 00:39:08;;;;;;;;;7.67;7.67;;;;;-147.17;100.00;5198.13;4954524;28;51000;-44
2023/04/26 00:41:33;;;;;;;;;7.00;7.00;;;;;-147.17;100.00;5198.13;4953445;28;51681;-44
2023/04/26 00:43:59;;;;;;;;;6.67;6.00;;;;;-147.17;100.00;5198.13;4952637;28;51475;-42
2023/04/26 00:46:25;;;;;;;;;6.67;6.00;;;;;-147.17;100.00;5198.13;4960625;28;52749;-43
2023/04/26 00:48:50;;;;;;;;;5.67;5.67;;;;;-147.17;100.00;5198.13;4947631;28;51192;-42
2023/04/26 00:51:15;;;;;;;;;8.00;7.00;;;;;-147.17;100.00;5198.13;4949511;28;51493;-44
2023/04/26 00:53:41;;;;;;;;;5.67;5.67;;;;;-147.17;100.00;5198.13;4948863;28;50880;-42
2023/04/26 00:56:08;;;;;;;;;6.33;6.33;;;;;-147.17;100.00;5198.13;4950300;28;52692;-43
2023/04/26 00:58:36;;;;;;;;;5.67;5.67;;;;;-147.17;100.00;5198.13;4928924;28;51009;-42
2023/04/26 01:01:01;;;;;;;;;7.67;7.67;;;;;-147.17;100.00;5198.13;4931195;28;51049;-43
2023/04/26 01:03:27;;;;;;;;;6.00;6.00;;;;;-147.17;100.00;5198.13;4932073;28;50966;-43
2023/04/26 01:05:53;;;;;;;;;6.00;6.00;;;;;-147.17;100.00;5198.13;4933704;28;51647;-42
2023/04/26 01:08:19;;;;;;;;;7.00;7.00;;;;;-147.17;100.00;5198.13;4932590;28;51197;-43
2023/04/26 01:10:47;;;;;;;;;7.00;7.00;;;;;-147.17;100.00;5198.13;4933571;28;51090;-43
2023/04/26 01:13:13;;;;;;;;;7.33;6.00;;;;;-147.17;100.00;5198.13;4935637;28;51002;-43
2023/04/26 01:15:44;;;;;;;;;6.67;6.67;;;;;-147.17;100.00;5198.13;4935016;28;51725;-45
2023/04/26 01:18:10;;;;;;;;;6.67;5.67;;;;;-147.17;100.00;5198.13;4935616;28;50962;-42
2023/04/26 01:20:35;;;;;;;;;8.33;8.33;;;;;-147.17;100.00;5198.13;4934641;28;50998;-43
2023/04/26 01:23:01;;;;;;;;;6.67;6.67;;;;;-147.17;100.00;5198.13;4935176;28;52114;-42
2023/04/26 01:25:27;;;;;;;;;5.33;5.00;;;;;-147.17;100.00;5198.13;4935258;28;52162;-42
2023/04/26 01:27:52;;;;;;;;;8.00;8.00;;;;;-147.17;100.00;5198.13;4935491;28;51162;-42
2023/04/26 01:30:17;;;;;;;;;7.00;7.00;;;;;-147.17;100.00;5198.13;4934355;28;51140;-43
2023/04/26 01:32:43;;;;;;;;;7.33;7.33;;;;;-147.17;100.00;5198.13;4934034;28;51231;-43
2023/04/26 01:35:08;;;;;;;;;6.00;6.00;;;;;-147.17;100.00;5447.22;4933845;28;53075;-43
2023/04/26 01:37:33;;;;;;;;;6.33;6.33;;;;;-147.17;100.00;5198.13;4935466;28;51154;-43
2023/04/26 01:39:59;;;;;;;;;7.00;7.00;;;;;-147.17;100.00;5198.13;4934677;28;51102;-43
2023/04/26 01:42:24;;;;;;;;;7.00;6.33;;;;;-147.17;100.00;5447.22;4935604;28;51426;-43
2023/04/26 01:44:49;;;;;;;;;7.00;7.00;;;;;-147.17;100.00;5447.22;4933706;28;63896;-42
2023/04/26 01:47:15;;;;;;;;;6.00;6.00;;;;;-147.17;100.00;5447.22;4935682;28;50999;-43
2023/04/26 01:49:40;;;;;;;;;7.33;7.33;;;;;-147.17;100.00;5447.22;4935560;28;51182;-43
2023/04/26 01:52:06;;;;;;;;;6.33;6.00;;;;;-147.17;100.00;5447.22;4933081;28;51405;-43
2023/04/26 01:54:31;;;;;;;;;7.00;7.00;;;;;-147.17;100.00;5696.34;4933947;28;51102;-43
2023/04/26 01:56:56;;;;;;;;;7.00;6.67;;;;;-147.17;100.00;5447.22;4932103;28;51937;-43
2023/04/26 01:59:22;;;;;;;;;5.67;5.67;;;;;-147.17;100.00;5447.22;4954149;28;51254;-42
2023/04/26 02:01:47;;;;;;;;;9.00;8.33;;;;;-147.17;100.00;5447.22;4954796;28;51164;-42
2023/04/26 02:04:12;;;;;;;;;5.67;5.67;;;;;-147.17;100.00;5696.34;4954106;28;51670;-43
2023/04/26 02:06:41;;;;;;;;;6.67;6.67;;;;;-147.17;100.00;5696.34;4934794;28;53603;-43
2023/04/26 02:09:08;;;;;;;;;7.33;7.00;;;;;-147.17;100.00;5696.34;4951111;28;51264;-42
2023/04/26 02:11:34;;;;;;;;;8.33;7.67;;;;;-147.17;100.00;5696.34;4954340;28;51255;-42
2023/04/26 02:13:59;;;;;;;;;6.67;6.67;;;;;-147.17;100.00;5696.34;4953587;28;52098;-42
2023/04/26 02:16:25;;;;;;;;;7.33;7.00;;;;;-147.17;100.00;5696.34;4954395;28;51006;-43
2023/04/26 02:18:52;;;;;;;;;7.67;7.67;;;;;-147.17;100.00;5696.34;4952533;28;51112;-42
2023/04/26 02:21:17;;;;;;;;;8.00;6.33;;;;;-147.17;100.00;5945.44;4953141;28;51398;-42
2023/04/26 02:23:43;;;;;;;;;6.33;6.33;;;;;-147.17;100.00;5945.44;4953213;28;50967;-42
2023/04/26 02:26:08;;;;;;;;;5.67;5.67;;;;;-147.17;100.00;5945.44;4954229;28;51041;-43
2023/04/26 02:28:33;;;;;;;;;6.67;6.67;;;;;-147.17;100.00;5945.44;4953119;28;51080;-42
2023/04/26 02:31:00;;;;;;;;;7.00;6.67;;;;;-147.17;100.00;5945.44;4951641;28;51116;-43
2023/04/26 02:33:26;;;;;;;;;7.33;6.67;;;;;-147.17;100.00;5945.44;4952810;28;51231;-42
2023/04/26 02:35:51;;;;;;;;;6.67;5.67;;;;;-147.17;100.00;5945.44;4952147;28;53262;-42
2023/04/26 02:38:16;;;;;;;;;8.00;7.00;;;;;-147.17;100.00;5945.44;4953747;28;50888;-44
2023/04/26 02:40:42;;;;;;;;;7.33;7.00;;;;;-147.17;100.00;5945.44;4954106;28;51264;-44
2023/04/26 02:43:10;;;;;;;;;6.33;6.33;;;;;-147.17;100.00;5945.44;4952543;28;51802;-43
2023/04/26 02:45:42;;;;;;;;;7.00;7.00;;;;;-147.17;100.00;5945.44;4951986;28;52251;-43
2023/04/26 02:48:07;;;;;;;;;6.33;6.33;;;;;-147.17;100.00;5945.44;4953728;28;51314;-43
2023/04/26 02:50:33;;;;;;;;;6.33;6.00;;;;;-147.17;100.00;5945.44;4953956;28;51088;-42
2023/04/26 02:52:58;;;;;;;;;8.00;8.00;;;;;-147.17;100.00;5945.44;4950953;28;51036;-43
2023/04/26 02:55:23;;;;;;;;;7.33;6.33;;;;;-147.17;100.00;6194.59;4953158;28;51107;-43
2023/04/26 02:57:48;;;;;;;;;6.33;6.33;;;;;-147.17;100.00;6194.59;4949743;28;51540;-42
2023/04/26 03:00:14;;;;;;;;;6.00;6.00;;;;;-147.17;100.00;6194.59;4952986;28;51279;-43
2023/04/26 03:02:39;;;;;;;;;5.33;5.33;;;;;-147.17;100.00;6194.59;4952513;28;52327;-44
2023/04/26 03:05:05;;;;;;;;;6.67;6.33;;;;;-147.17;100.00;6194.59;4951563;28;52659;-42
2023/04/26 03:07:30;;;;;;;;;7.33;6.33;;;;;-147.17;100.00;6194.59;4951664;28;51427;-42
2023/04/26 03:09:56;;;;;;;;;7.00;7.00;;;;;-147.17;100.00;6194.59;4953091;28;51302;-42
2023/04/26 03:12:22;;;;;;;;;6.00;5.67;;;;;-147.17;100.00;6194.59;4953350;28;52913;-43
2023/04/26 03:14:47;;;;;;;;;7.33;5.67;;;;;-147.17;100.00;6194.59;4951380;28;51100;-43
2023/04/26 03:17:12;;;;;;;;;6.00;6.00;;;;;-147.17;100.00;6194.59;4952007;28;51134;-43
2023/04/26 03:19:38;;;;;;;;;8.00;4.67;;;;;-147.17;100.00;6443.75;4953492;28;51345;-43
2023/04/26 03:22:03;;;;;;;;;6.33;6.00;;;;;-147.17;100.00;6194.59;4952050;28;51421;-42
2023/04/26 03:24:29;;;;;;;;;6.00;6.00;;;;;-147.17;100.00;6443.75;4953097;28;51124;-43
2023/04/26 03:26:54;;;;;;;;;6.33;5.67;;;;;-147.17;100.00;6443.75;4951967;28;51068;-43
2023/04/26 03:29:19;;;;;;;;;6.00;4.67;;;;;-147.17;100.00;6443.75;4950353;28;51151;-43
2023/04/26 03:31:45;;;;;;;;;7.00;6.67;;;;;-147.17;100.00;6443.75;4952500;28;52842;-43
2023/04/26 03:34:10;;;;;;;;;0.00;0.00;;;;;-147.17;100.00;6692.91;4952858;28;51013;-43
2023/04/26 03:36:35;;;;;;;;;4.00;4.00;;;;;-147.17;100.00;6443.75;4951913;28;50901;-42
2023/04/26 03:39:01;;;;;;;;;5.33;5.33;;;;;-147.17;100.00;6692.91;4951434;28;50849;-43
2023/04/26 03:41:26;;;;;;;;;5.33;5.33;;;;;-147.17;100.00;6692.91;4951805;28;51923;-42
2023/04/26 03:43:52;;;;;;;;;6.67;6.00;;;;;-147.17;100.00;6443.75;4952774;28;51254;-42
2023/04/26 03:46:17;;;;;;;;;5.00;5.00;;;;;-147.17;100.00;6194.59;4951537;28;50963;-42
2023/04/26 03:48:42;;;;;;;;;5.00;5.00;;;;;-147.17;100.00;6194.59;4952621;28;51289;-42
2023/04/26 03:51:10;;;;;;;;;6.33;6.00;;;;;-147.17;100.00;6194.59;4951126;28;52797;-43
2023/04/26 03:53:35;;;;;;;;;5.67;5.67;;;;;-147.17;100.00;6194.59;4952612;28;51069;-43
2023/04/26 03:56:01;;;;;;;;;5.00;4.33;;;;;-147.17;100.00;6194.59;4951771;28;51054;-42
2023/04/26 03:58:26;;;;;;;;;6.33;6.33;;;;;-147.17;100.00;6194.59;4943740;28;51345;-42
2023/04/26 04:00:55;;;;;;;;;5.33;4.67;;;;;-147.17;100.00;6194.59;4949462;28;51732;-43
2023/04/26 04:03:21;;;;;;;;;6.67;5.67;;;;;-147.17;100.00;6194.59;4952436;28;50883;-42
2023/04/26 04:05:46;;;;;;;;;5.67;5.00;;;;;-147.17;100.00;6194.59;4950979;28;51145;-42
2023/04/26 04:08:12;;;;;;;;;6.67;6.00;;;;;-147.17;100.00;6194.59;4952383;28;51078;-43
2023/04/26 04:10:37;;;;;;;;;5.33;5.33;;;;;-147.17;100.00;5945.44;4942146;28;52986;-43
2023/04/26 04:13:02;;;;;;;;;6.67;6.00;;;;;-147.17;100.00;5945.44;4952611;28;51580;-42
2023/04/26 04:15:28;;;;;;;;;5.33;5.33;;;;;-147.17;100.00;5945.44;4950594;28;51323;-42
2023/04/26 04:17:53;;;;;;;;;6.00;6.00;;;;;-147.17;100.00;5945.44;4951429;28;51362;-42
2023/04/26 04:20:20;;;;;;;;;4.00;4.00;;;;;-147.17;100.00;5945.44;4951834;28;52081;-42
2023/04/26 04:22:46;;;;;;;;;4.67;4.67;;;;;-147.17;100.00;5945.44;4952369;28;51075;-42
2023/04/26 04:25:12;;;;;;;;;5.33;5.33;;;;;-147.17;100.00;5696.34;4951265;28;51238;-43
2023/04/26 04:27:38;;;;;;;;;4.67;4.67;;;;;-147.17;100.00;5696.34;4952191;28;52198;-43
2023/04/26 04:30:06;;;;;;;;;4.00;4.00;;;;;-147.17;100.00;5945.44;4949069;28;51959;-43
2023/04/26 04:32:32;;;;;;;;;5.00;5.00;;;;;-147.17;100.00;5696.34;4951402;28;50934;-43
2023/04/26 04:34:58;;;;;;;;;5.67;4.67;;;;;-147.17;100.00;5696.34;4951880;28;51184;-44
2023/04/26 04:37:24;;;;;;;;;5.00;5.00;;;;;-147.17;100.00;5696.34;4952473;28;50982;-42
2023/04/26 04:39:51;;;;;;;;;5.33;4.67;;;;;-147.17;100.00;5447.22;4952440;28;51932;-42
2023/04/26 04:42:16;;;;;;;;;5.00;5.00;;;;;-147.17;100.00;5447.22;4955587;28;51006;-43
2023/04/26 04:44:42;;;;;;;;;5.67;5.00;;;;;-147.17;100.00;5198.13;4955104;28;51020;-43
2023/04/26 04:47:07;;;;;;;;;6.00;6.00;;;;;-147.17;100.00;2708.13;4955791;28;51145;-42
2023/04/26 04:49:33;;;;;;;;;4.67;4.33;;;;;-147.17;100.00;966.09;4955135;28;51890;-43
2023/04/26 04:51:58;;;;;;;;;6.00;6.00;;;;;-147.17;100.00;468.50;4955413;28;51152;-42
2023/04/26 04:54:23;;;;;;;;;10.33;8.33;;;;;-147.17;100.00;-775.19;4955499;28;50966;-43
2023/04/26 04:56:49;;;;;;;;;4.67;4.67;;;;;-147.17;100.00;-1521.19;4955279;28;50875;-43
2023/04/26 04:59:15;;;;;;;;;6.00;5.67;;;;;-147.17;100.00;-2267.06;4951805;28;51828;-42
2023/04/26 05:01:40;;;;;;;;;6.33;6.00;;;;;-147.17;100.00;-3012.78;4955456;28;50938;-42
2023/04/26 05:04:06;;;;;;;;;5.33;5.00;;;;;-147.17;100.00;-3509.84;4953136;28;51103;-42
2023/04/26 05:06:32;;;;;;;;;7.00;6.00;;;;;-147.17;100.00;-4006.88;4953326;28;50931;-42
2023/04/26 05:08:57;;;;;;;;;3.67;3.67;;;;;-147.17;100.00;-4503.81;4952704;28;52691;-42
2023/04/26 05:11:22;;;;;;;;;4.67;4.67;;;;;-147.17;100.00;-4752.25;4954332;28;51148;-42
2023/04/26 05:13:48;;;;;;;;;6.00;5.33;;;;;-147.17;100.00;-5000.69;4954962;28;50994;-43
2023/04/26 05:16:14;;;;;;;;;6.00;5.00;;;;;-147.17;100.00;-5000.69;4937264;28;51290;-42
2023/04/26 05:18:39;;;;;;;;;4.00;4.00;;;;;-147.17;100.00;-5249.09;4954487;28;51963;-42
2023/04/26 05:21:05;;;;;;;;;5.67;5.00;;;;;-147.17;100.00;-5497.50;4954824;28;51013;-42
2023/04/26 05:23:30;;;;;;;;;6.67;6.67;;;;;-147.17;100.00;-5497.50;4937504;28;51111;-43
2023/04/26 05:25:56;;;;;;;;;5.00;4.67;;;;;-147.17;100.00;-5745.88;4955211;28;50989;-42
2023/04/26 05:28:21;;;;;;;;;5.67;5.33;;;;;-147.17;100.00;-5745.88;4954748;28;51248;-42
2023/04/26 05:30:48;;;;;;;;;6.67;5.67;;;;;-147.17;100.00;-5994.25;4954600;28;51002;-42
2023/04/26 05:33:14;;;;;;;;;6.00;5.00;;;;;-147.17;100.00;-5994.25;4954686;28;51012;-42
2023/04/26 05:35:39;;;;;;;;;4.00;4.00;;;;;-147.17;100.00;-5994.25;4955006;28;51329;-42
2023/04/26 05:38:05;;;;;;;;;7.00;6.33;;;;;-147.17;100.00;-5994.25;4954472;28;51164;-43
2023/04/26 05:40:31;;;;;;;;;5.00;5.00;;;;;-147.17;100.00;-5994.25;4954439;28;50968;-42
2023/04/26 05:42:56;;;;;;;;;4.67;4.67;;;;;-147.17;100.00;-5994.25;4954388;28;50897;-42
2023/04/26 05:45:22;;;;;;;;;6.00;6.00;;;;;-147.17;100.00;-5994.25;4954638;28;51185;-42
2023/04/26 05:47:47;;;;;;;;;3.67;3.67;;;;;-147.17;100.00;-5994.25;4954175;28;51865;-42
2023/04/26 05:50:12;;;;;;;;;4.33;4.33;;;;;-147.17;100.00;-5994.25;4954380;28;50928;-42
2023/04/26 05:52:38;;;;;;;;;4.33;4.33;;;;;-147.17;100.00;-5994.25;4953934;28;51254;-43
2023/04/26 05:55:04;;;;;;;;;6.33;5.67;;;;;-147.17;100.00;-5994.25;4954315;28;51268;-42
2023/04/26 05:57:30;;;;;;;;;6.00;6.00;;;;;-147.17;100.00;-5994.25;4945864;28;51855;-42
2023/04/26 05:59:55;;;;;;;;;8.00;5.67;;;;;-147.17;100.00;-5994.25;4953706;28;51169;-42
2023/04/26 06:02:20;;;;;;;;;6.00;6.00;;;;;-147.17;100.00;-5994.25;4937417;28;51346;-42
2023/04/26 06:04:46;;;;;;;;;7.33;6.67;;;;;-147.17;100.00;-5994.25;4936796;28;51442;-42
2023/04/26 06:07:11;;;;;;;;;4.67;4.00;;;;;-147.17;100.00;-5994.25;4953211;28;57135;-42
2023/04/26 06:09:37;;;;;;;;;4.67;4.67;;;;;-147.17;100.00;-5994.25;4953828;28;51109;-42
2023/04/26 06:12:03;;;;;;;;;6.00;5.67;;;;;-147.17;100.00;-5994.25;4953822;28;51197;-42
2023/04/26 06:14:28;;;;;;;;;4.00;4.00;;;;;-147.17;100.00;-5745.88;4930928;28;51296;-43
2023/04/26 06:16:55;;;;;;;;;5.67;5.00;;;;;-147.17;100.00;-5745.88;4950116;28;52062;-42
2023/04/26 06:19:20;;;;;;;;;4.33;3.67;;;;;-147.17;100.00;-5745.88;4953900;28;51222;-42
2023/04/26 06:21:47;;;;;;;;;5.00;4.00;;;;;-147.17;100.00;-5745.88;4934307;28;51210;-42
2023/04/26 06:24:13;;;;;;;;;4.67;4.67;;;;;-147.17;100.00;-5497.50;4948093;28;51250;-32
2023/04/26 06:26:38;;;;;;;;;7.33;6.67;;;;;-147.17;100.00;-4255.34;4949020;28;51255;-31
2023/04/26 06:29:03;;;;;;;;;9.33;9.33;;;;;-147.17;100.00;-2515.66;4949903;28;51326;-30
2023/04/26 06:31:28;;;;;;;;;5.33;5.00;;;;;-147.17;100.00;-2515.66;4953057;28;51090;-33
2023/04/26 06:33:54;;;;;;;;;3.00;2.33;;;;;-147.17;100.00;-2764.22;4953227;28;50950;-31
2023/04/26 06:36:20;;;;;;;;;4.67;4.67;;;;;-147.17;100.00;-2764.22;4952450;28;51198;-32
2023/04/26 06:38:45;;;;;;;;;7.00;6.00;;;;;-147.17;100.00;-3012.78;4952755;28;50979;-34
2023/04/26 06:41:10;;;;;;;;;7.00;5.67;;;;;-147.17;100.00;-3261.34;4945919;28;52758;-26
2023/04/26 06:43:36;;;;;;;;;7.00;7.00;;;;;-147.17;100.00;-3509.84;4957732;28;51284;-25
2023/04/26 06:46:01;;;;;;;;;6.33;5.33;;;;;-147.17;100.00;-3261.34;4951959;28;51743;-27
2023/04/26 06:48:27;;;;;;;;;5.67;4.67;;;;;-147.17;100.00;-2764.22;4963916;28;50947;-25
2023/04/26 06:50:52;;;;;;;;;7.00;4.33;;;;;-147.17;100.00;-2764.22;4952533;28;51096;-26
2023/04/26 06:53:17;;;;;;;;;4.33;3.33;;;;;-147.17;100.00;-3261.34;4952580;28;51474;-23
2023/04/26 06:55:43;;;;;;;;;8.67;6.00;;;;;-147.17;100.00;-3758.38;4952323;28;51045;-23
2023/04/26 06:58:09;;;;;;;;;1.33;1.00;;;;;-147.17;100.00;-3758.38;4951734;28;50993;-23
2023/04/26 07:00:34;;;;;;;;;4.00;4.00;;;;;-147.17;100.00;-526.47;4951776;28;51217;-23
2023/04/26 07:02:59;;;;;;;;;4.00;4.00;;;;;-147.17;100.00;4700.00;4951755;28;51078;-23
2023/04/26 07:05:25;;;;;;;;;3.00;3.00;;;;;-147.17;100.00;10182.97;4951747;28;54088;-24
2023/04/26 07:07:50;;;;;;;;;5.00;4.67;;;;;-147.17;100.00;14924.50;4952065;28;50854;-23
2023/04/26 07:10:16;;;;;;;;;4.00;3.00;;;;;-147.17;100.00;19921.84;4951931;28;51141;-24
2023/04/26 07:12:41;;;;;;;;;5.67;5.67;;;;;-147.17;100.00;24424.97;4952464;28;50861;-29
2023/04/26 07:15:08;;;;;;;;;5.33;4.67;;;;;-147.17;100.00;32592.28;4951263;28;51724;-29
2023/04/26 07:17:33;;;;;;;;;7.67;7.00;;;;;-147.17;100.00;35974.22;4951640;28;51064;-26
2023/04/26 07:19:58;;;;;;;;;10.00;9.00;;;;;-147.17;100.00;38432.59;4951693;28;51204;-28
2023/04/26 07:22:23;;;;;;;;;7.00;6.67;;;;;-147.17;100.00;39048.91;4952239;28;51195;-27
2023/04/26 07:24:49;;;;;;;;;5.33;5.33;;;;;-147.17;100.00;39963.72;4951106;28;65884;-26
2023/04/26 07:27:14;;;;;;;;;5.00;5.00;;;;;-147.17;100.00;40446.75;4951974;28;51176;-28
2023/04/26 07:29:40;;;;;;;;;5.33;5.33;;;;;-147.17;100.00;41024.09;4951661;28;51323;-26
2023/04/26 07:32:05;;;;;;;;;8.33;8.00;;;;;-147.17;100.00;42135.81;4935062;28;50998;-28
2023/04/26 07:34:31;;;;;;;;;15.67;13.67;;;;;-147.17;100.00;42294.94;4951884;28;52710;-26
2023/04/26 07:36:56;;;;;;;;;31.50;26.00;;;;;-147.17;100.00;42646.63;4951526;28;51026;-27
2023/04/26 07:39:23;;;;;;;;;8.33;8.33;;;;;-147.17;100.00;42241.91;4952186;28;50979;-25
2023/04/26 07:41:48;;;;;;;;;16.50;15.00;;;;;-147.17;100.00;42292.97;4952216;28;51343;-27
2023/04/26 07:44:13;;;;;;;;;246.75;161.25;;;;;-147.17;100.00;42797.91;4951584;28;51669;-27
2023/04/26 07:46:39;;;;;;;;;32.75;26.75;;;;;-147.17;100.00;42434.44;4951189;28;59222;-29
2023/04/26 07:49:04;;;;;;;;;17.25;14.75;;;;;-147.17;100.00;42988.47;4951336;28;50994;-29
2023/04/26 07:51:30;;;;;;;;;13.67;12.00;;;;;-147.17;100.00;43326.47;4951673;28;50960;-28
2023/04/26 07:53:56;;;;;;;;;17.50;17.25;;;;;-147.17;100.00;43540.66;4951103;28;52057;-26
2023/04/26 07:56:25;;;;;;;;;27.00;24.00;;;;;-147.17;100.00;43821.69;4950999;28;51053;-27
2023/04/26 07:58:50;;;;;;;;;17.50;15.25;;;;;-147.17;100.00;44030.00;4943995;28;51299;-28
2023/04/26 08:01:15;;;;;;;;;11.67;11.67;;;;;-147.17;100.00;44100.78;4951307;28;50996;-28
2023/04/26 08:03:41;;;;;;;;;12.00;11.25;;;;;-147.17;100.00;44289.47;4951116;28;52730;-29
2023/04/26 08:06:07;;;;;;;;;18.00;14.50;;;;;-147.17;100.00;44427.03;4951033;28;51216;-29
2023/04/26 08:08:34;;;;;;;;;10.33;10.00;;;;;-147.17;100.00;44541.06;4933615;28;51047;-28
2023/04/26 08:11:00;;;;;;;;;16.75;14.25;;;;;-147.17;100.00;44613.78;4951101;28;51168;-29
2023/04/26 08:13:25;;;;;;;;;14.00;13.25;;;;;-147.17;100.00;44841.81;4950765;28;51855;-29
2023/04/26 08:15:50;;;;;;;;;15.50;14.50;;;;;-147.17;100.00;45087.53;4954104;28;50982;-30
2023/04/26 08:18:16;;;;;;;;;22.50;19.50;;;;;-147.17;100.00;45292.00;4954382;28;51038;-28
2023/04/26 08:20:41;;;;;;;;;56.75;38.00;;;;;-147.17;100.00;45311.66;4954671;28;51213;-27
2023/04/26 08:23:06;;;;;;;;;17.25;15.25;;;;;-147.17;100.00;45480.75;4954565;28;52551;-26
2023/04/26 08:25:33;;;;;;;;;15.00;12.75;;;;;-147.17;100.00;45502.38;4954512;28;51333;-29
2023/04/26 08:27:59;;;;;;;;;13.00;12.50;;;;;-147.17;100.00;45641.97;4954560;28;51317;-28
2023/04/26 08:30:24;;;;;;;;;11.00;11.00;;;;;-147.17;100.00;45740.28;4954064;28;51193;-25
2023/04/26 08:32:49;;;;;;;;;11.00;10.33;;;;;-147.17;100.00;45781.56;4948847;28;51805;-27
2023/04/26 08:35:15;;;;;;;;;9.00;8.67;;;;;-147.17;100.00;45752.09;4953713;28;58072;-25
2023/04/26 08:37:40;;;;;;;;;11.00;11.00;;;;;-147.17;100.00;45870.06;4936795;28;51027;-25
2023/04/26 08:40:08;;;;;;;;;10.25;10.00;;;;;-147.17;100.00;45872.03;4954132;28;51222;-25
2023/04/26 08:42:39;;;;;;;;;12.33;10.00;;;;;-147.17;100.00;45779.63;4954417;28;52898;-25
2023/04/26 08:45:07;;;;;;;;;11.33;11.00;;;;;-147.17;100.00;45805.19;4936533;28;51203;-25
2023/04/26 08:47:49;;;;;;;;;10.00;9.33;;;;;-147.17;100.00;45846.47;4936720;28;51065;-28
2023/04/26 08:50:17;;;;;;;;;9.75;9.75;;;;;-147.17;100.00;45789.44;4954893;28;51097;-26
2023/04/26 08:52:44;;;;;;;;;9.00;8.00;;;;;-147.17;100.00;45832.69;4951153;28;51057;-27
2023/04/26 08:55:10;;;;;;;;;9.67;9.67;;;;;-147.17;100.00;46017.53;4953776;28;51017;-28
2023/04/26 08:57:35;;;;;;;;;12.00;10.33;;;;;-147.17;100.00;46062.75;4954209;28;50999;-26
2023/04/26 09:00:04;;;;;;;;;10.00;9.67;;;;;-147.17;100.00;45984.09;4954405;28;51191;-29
2023/04/26 09:02:30;;;;;;;;;11.00;11.00;;;;;-147.17;100.00;45913.31;4954071;28;52863;-25
2023/04/26 09:04:56;;;;;;;;;8.33;8.33;;;;;-147.17;100.00;45881.84;4954152;28;51001;-25
2023/04/26 09:07:29;;;;;;;;;10.67;10.67;;;;;-147.17;100.00;45858.25;4953868;28;50975;-28
2023/04/26 09:09:57;;;;;;;;;12.33;9.00;;;;;-147.17;100.00;46039.16;4953097;28;51307;-27
2023/04/26 09:12:23;;;;;;;;;12.67;10.00;;;;;-147.17;100.00;46086.38;4953362;28;50985;-29
2023/04/26 09:14:49;;;;;;;;;8.33;6.67;;;;;-147.17;100.00;46216.16;4953746;28;51185;-27
2023/04/26 09:17:35;;;;;;;;;7.33;7.33;;;;;-147.17;100.00;46342.00;4953636;28;51137;-25
2023/04/26 09:20:15;;;;;;;;;6.67;5.33;;;;;-147.17;100.00;46188.63;4953980;28;51228;-28
2023/04/26 09:22:41;;;;;;;;;6.67;5.00;;;;;-147.17;100.00;46094.22;4953834;28;51149;-30
2023/04/26 09:25:07;;;;;;;;;4.67;4.67;;;;;-147.17;100.00;46031.31;4953058;28;51014;-30
2023/04/26 09:27:37;;;;;;;;;5.00;4.33;;;;;-147.17;100.00;45923.16;4935961;28;51014;-28
2023/04/26 09:30:16;;;;;;;;;5.67;5.67;;;;;-147.17;100.00;45854.34;4953731;28;51198;-26
2023/04/26 09:32:58;;;;;;;;;5.00;5.00;;;;;-147.17;100.00;45816.97;4953491;28;51889;-26
2023/04/26 09:35:36;;;;;;;;;5.00;4.67;;;;;-147.17;100.00;45677.38;4953721;28;51099;-28
2023/04/26 09:38:07;;;;;;;;;5.67;4.33;;;;;-147.17;100.00;45571.19;4954128;28;50932;-26
2023/04/26 09:40:35;;;;;;;;;5.00;5.00;;;;;-147.17;100.00;45535.81;4954691;28;51118;-28
2023/04/26 09:43:02;;;;;;;;;9.00;8.33;;;;;-147.17;100.00;45356.88;4953889;28;51822;-27
2023/04/26 09:45:30;;;;;;;;;7.00;7.00;;;;;-147.17;100.00;45238.91;4954124;28;50936;-31
2023/04/26 09:48:33;;;;;;;;;6.00;5.00;;;;;-147.17;100.00;45233.03;4952098;28;51109;-29
2023/04/26 09:51:07;;;;;;;;;7.00;7.00;;;;;-147.17;100.00;45474.84;4851705;29;51445;-30
2023/04/26 09:53:40;;;;;;;;;7.00;5.67;;;;;-147.17;100.00;45632.16;4940394;28;51900;-32
2023/04/26 09:56:08;;;;;;;;;6.33;5.00;;;;;-147.17;100.00;45673.44;4953806;28;51077;-29
2023/04/26 09:58:36;;;;;;;;;5.67;5.00;;;;;-147.17;100.00;45651.81;4947749;28;51245;-29
2023/04/26 10:01:03;;;;;;;;;5.00;5.00;;;;;-147.17;100.00;45702.94;4953841;28;51073;-30
2023/04/26 10:03:31;;;;;;;;;6.00;5.00;;;;;-147.17;100.00;45779.63;4953406;28;53020;-30
2023/04/26 10:05:56;;;;;;;;;5.33;5.33;;;;;-147.17;100.00;45866.13;4953222;28;51060;-32
2023/04/26 10:08:22;;;;;;;;;4.00;4.00;;;;;-147.17;100.00;45934.94;4953701;28;51295;-31
2023/04/26 10:10:48;;;;;;;;;4.67;4.00;;;;;-147.17;100.00;45911.34;4953718;28;51014;-30
2023/04/26 10:13:15;;;;;;;;;4.00;4.00;;;;;-147.17;100.00;45895.63;4953667;28;51923;-32
2023/04/26 10:15:41;;;;;;;;;5.00;4.00;;;;;-147.17;100.00;45891.69;4953215;28;50934;-29
2023/04/26 10:18:07;;;;;;;;;6.00;6.00;;;;;-147.17;100.00;45988.03;4953735;28;51134;-32
2023/04/26 10:20:37;;;;;;;;;5.00;5.00;;;;;-147.17;100.00;46015.56;4953760;28;51054;-30
2023/04/26 10:23:11;;;;;;;;;5.00;5.00;;;;;-147.17;100.00;45999.84;4953148;28;51790;-32
2023/04/26 10:25:37;;;;;;;;;3.67;3.67;;;;;-147.17;100.00;45913.31;4953400;28;51039;-30
2023/04/26 10:28:03;;;;;;;;;4.00;4.00;;;;;-147.17;100.00;45936.91;4953430;28;51124;-30
2023/04/26 10:30:29;;;;;;;;;4.67;4.00;;;;;-147.17;100.00;46031.31;4952215;28;51882;-31
2023/04/26 10:32:54;;;;;;;;;3.00;3.00;;;;;-147.17;100.00;46058.84;4953307;28;52594;-31
2023/04/26 10:35:21;;;;;;;;;3.67;3.67;;;;;-147.17;100.00;46076.53;4953435;28;50935;-30
2023/04/26 10:37:58;;;;;;;;;5.67;5.67;;;;;-147.17;100.00;46186.66;4952303;28;50980;-31
2023/04/26 10:40:31;;;;;;;;;4.00;4.00;;;;;-147.17;100.00;46180.75;4953369;28;51035;-32
2023/04/26 10:43:13;;;;;;;;;4.00;3.00;;;;;-147.17;100.00;46076.53;4952653;28;51121;-36
2023/04/26 10:45:43;;;;;;;;;5.00;4.33;;;;;-147.17;100.00;45893.66;4952662;28;51085;-33
2023/04/26 10:48:27;;;;;;;;;4.00;4.00;;;;;-147.17;100.00;45579.06;4952482;28;51094;-32
2023/04/26 10:51:00;;;;;;;;;4.00;3.00;;;;;-147.17;100.00;45390.31;4952983;28;50987;-33
2023/04/26 10:53:26;;;;;;;;;3.00;2.00;;;;;-147.17;100.00;45187.81;4955211;28;52639;-29
2023/04/26 10:55:52;;;;;;;;;3.00;3.00;;;;;-147.17;100.00;45014.81;4955677;28;50904;-30
2023/04/26 10:58:33;;;;;;;;;3.00;2.00;;;;;-147.17;100.00;44851.63;4952814;28;50831;-30
2023/04/26 11:01:07;;;;;;;;;5.33;5.00;;;;;-147.17;100.00;44739.59;4953183;28;51018;-29
2023/04/26 11:03:32;;;;;;;;;3.67;3.33;;;;;-147.17;100.00;44607.88;4952170;28;53156;-33
2023/04/26 11:05:58;;;;;;;;;3.00;2.00;;;;;-147.17;100.00;44501.75;4952081;28;51306;-30
2023/04/26 11:08:31;;;;;;;;;3.00;3.00;;;;;-147.17;100.00;44423.13;4952423;28;51238;-31